Aérodrome :
LOGIN :

S'inscrire | Disclaimer

   EN    FR    IT 

 










Légende :    VFR   VFR Marginal   IFR   IFR Intensif   IFR Très Intensif
Visi : 
Plafond : 
>= 8 km
>= 3000ft
5 à 8 km
1000 à 3000 ft
1500m à 5 km
500 à 1000 ft
800 à 1500m
200 à 500 ft
< 800m
< 200 ft
Symboles :   Orages  Brouillard  Fortes neiges  Fortes précipitations  Vent > 20 kt
SIGMETs :   Divers  Orages  Givrage  Turbulence  Onde Orograph.  Cendres Volcan.







- Altitude de l'aérodrome : 219 ft
- Code IATA : DNR
- Voir les cartes d'approche


LFRD - Dinard

DERNIER METAR :
  • 250700Z AUTO 31009KT 9999 OVC008 14/12 Q1021 BECMG SCT020

METARs EXPIRÉS :
  • 250630Z AUTO 31009KT 9999 OVC008 13/11 Q1021 TEMPO BKN004
  • 250600Z AUTO 30008KT 9999 OVC007 13/12 Q1021 TEMPO BKN004
  • 250530Z AUTO 31008KT 9999 OVC007 13/12 Q1021 TEMPO BKN004
  • 250500Z AUTO 32007KT 9999 OVC007 13/11 Q1021 TEMPO BKN004
  • 250430Z AUTO 31009KT 9999 BKN007 OVC021 13/11 Q1020 TEMPO BKN004
  • 250400Z AUTO 30009KT 9999 OVC007 13/12 Q1020 TEMPO BKN004

TAF TAF LFRD
Valide du 25 à 06h jusqu'au 26 à 06h UTC


250500Z 2506/2606 31010KT 9999 BKN007
PROB30
TEMPO 2506/2508 BKN004
BECMG 2508/2510 SCT020
PROB40
TEMPO 2514/2520 BKN008
BECMG 2518/2520 BKN005
TEMPO 2600/2606 5000 RADZ
ATIS : +33 2 99 16 81 50
Pas de NOTAMs connus pour ce terrain.



MET'MAP, la Météo Aéronautique d'un coup d'oeil ! - Copyright ORBIFLY Décembre 2007 - Disclaimer

ORBIFLY MET'MAP TEAM :

Programmation & Développement : Alexandra Zaïnal
Conception & Développement : Baudouin d'Aumeries
Co-Programmation & Développement : Marc-Olivier Méhu
Soutien technique & logistique : Manuel Goepfert

Contact : metmap@orbifly.com




SOURCES & CREDITS :

   NOAA